Time;durP1;ratioP1;P1;durP2;ratioP2;P2;SDS_P1;SDS_P2;PMS_P1;PMS_P2;Temp;Humidity;BMP_temperature;BMP_pressure;BME280_temperature;BME280_humidity;BME280_pressure;Samples;Min_cycle;Max_cycle;Signal;HPM_P1;HPM_P2
2021/08/08 00:01:01;;;;;;;11.80;3.00;;;19.00;96.60;;;;;;4245922;28;20063;-74
2021/08/08 00:03:05;;;;;;;14.10;2.85;;;19.10;96.60;;;;;;4245849;28;20108;-74
2021/08/08 00:05:10;;;;;;;14.38;3.35;;;19.00;96.80;;;;;;4245905;28;20055;-75
2021/08/08 00:07:13;;;;;;;19.20;3.30;;;19.00;96.80;;;;;;4245707;27;20063;-74
2021/08/08 00:09:16;;;;;;;12.27;2.80;;;19.00;96.70;;;;;;4249041;27;20408;-74
2021/08/08 00:11:19;;;;;;;18.02;2.90;;;19.00;96.60;;;;;;4249255;27;20058;-74
2021/08/08 00:13:22;;;;;;;13.55;3.20;;;19.00;96.50;;;;;;4249042;27;20060;-74
2021/08/08 00:15:26;;;;;;;15.63;3.85;;;19.10;96.50;;;;;;4248893;27;20055;-74
2021/08/08 00:17:29;;;;;;;11.82;2.85;;;19.00;96.60;;;;;;4249470;27;20059;-74
2021/08/08 00:19:33;;;;;;;15.20;2.83;;;19.00;96.80;;;;;;4248899;27;20104;-74
2021/08/08 00:21:36;;;;;;;12.23;2.70;;;18.80;97.10;;;;;;4249177;27;20051;-74
2021/08/08 00:23:39;;;;;;;14.38;2.72;;;18.70;97.30;;;;;;4248963;27;20051;-73
2021/08/08 00:25:42;;;;;;;14.00;2.95;;;18.80;97.20;;;;;;4230556;28;20556;-74
2021/08/08 00:27:45;;;;;;;11.57;2.85;;;18.80;97.20;;;;;;4248750;27;20104;-74
2021/08/08 00:29:48;;;;;;;11.80;3.00;;;18.80;97.30;;;;;;4249135;27;20088;-74
2021/08/08 00:31:52;;;;;;;10.30;2.75;;;18.80;97.40;;;;;;4249069;27;20059;-74
2021/08/08 00:33:55;;;;;;;15.10;3.20;;;18.70;97.50;;;;;;4248642;27;20452;-74
2021/08/08 00:35:58;;;;;;;10.57;2.13;;;18.70;97.50;;;;;;4248514;27;20058;-74
2021/08/08 00:38:01;;;;;;;11.63;2.67;;;18.70;97.80;;;;;;4249010;27;20050;-74
2021/08/08 00:40:06;;;;;;;12.50;2.58;;;18.50;98.10;;;;;;4248793;27;20058;-74
2021/08/08 00:42:09;;;;;;;15.90;2.65;;;18.60;98.20;;;;;;4248616;27;20055;-74
2021/08/08 00:44:12;;;;;;;11.30;2.78;;;18.60;98.60;;;;;;4230200;27;20063;-75
2021/08/08 00:46:15;;;;;;;14.02;2.72;;;18.60;98.30;;;;;;4248448;27;20051;-74
2021/08/08 00:48:19;;;;;;;17.73;3.30;;;18.60;98.30;;;;;;4248748;27;20461;-76
2021/08/08 00:50:22;;;;;;;9.35;2.53;;;18.60;98.30;;;;;;4248605;27;20055;-73
2021/08/08 00:52:25;;;;;;;12.13;2.80;;;18.60;98.20;;;;;;4230358;28;20056;-74
2021/08/08 00:54:28;;;;;;;18.40;2.95;;;18.60;98.20;;;;;;4248695;27;20054;-74
2021/08/08 00:56:31;;;;;;;11.02;2.67;;;18.50;98.30;;;;;;4248859;27;20067;-74
2021/08/08 00:58:34;;;;;;;8.93;2.30;;;18.50;98.20;;;;;;4248629;27;20602;-74
2021/08/08 01:00:40;;;;;;;13.90;2.88;;;18.60;98.20;;;;;;4248588;27;20055;-73
2021/08/08 01:02:48;;;;;;;21.38;3.38;;;18.60;98.00;;;;;;4249002;27;20104;-74
2021/08/08 01:04:59;;;;;;;13.93;2.60;;;18.60;98.10;;;;;;4248719;27;20047;-74
2021/08/08 01:07:05;;;;;;;13.02;2.92;;;18.70;98.00;;;;;;4248342;27;20108;-74
2021/08/08 01:09:11;;;;;;;12.05;2.63;;;18.50;98.30;;;;;;4230416;28;20052;-74
2021/08/08 01:11:15;;;;;;;17.20;3.35;;;18.50;98.50;;;;;;4248552;27;20054;-74
2021/08/08 01:13:18;;;;;;;13.40;3.10;;;18.30;98.80;;;;;;4230604;28;20109;-76
2021/08/08 01:15:21;;;;;;;13.35;2.40;;;18.30;98.90;;;;;;4248111;27;20112;-74
2021/08/08 01:17:24;;;;;;;15.55;3.03;;;18.20;99.20;;;;;;4248084;27;20055;-73
2021/08/08 01:19:32;;;;;;;13.68;2.78;;;18.10;99.40;;;;;;4229793;28;20596;-74
2021/08/08 01:21:39;;;;;;;13.05;2.42;;;18.10;99.60;;;;;;4248121;27;20055;-74
2021/08/08 01:23:43;;;;;;;13.65;2.63;;;18.10;99.40;;;;;;4247948;27;20552;-75
2021/08/08 01:25:48;;;;;;;12.77;3.10;;;18.10;99.50;;;;;;4248341;27;20457;-74
2021/08/08 01:27:52;;;;;;;;;;;18.10;99.40;;;;;;4248488;27;20055;-74
2021/08/08 01:29:56;;;;;;;12.93;2.40;;;18.20;99.50;;;;;;4247873;27;19919;-74
2021/08/08 01:31:59;;;;;;;16.63;2.92;;;18.00;99.90;;;;;;4247933;27;20051;-74
2021/08/08 01:34:02;;;;;;;11.55;2.53;;;18.00;99.90;;;;;;4248026;27;20047;-74
2021/08/08 01:36:05;;;;;;;14.60;3.22;;;18.10;99.40;;;;;;4247763;27;20054;-74
2021/08/08 01:38:08;;;;;;;21.27;3.00;;;18.20;99.40;;;;;;4247712;27;20058;-74
2021/08/08 01:40:17;;;;;;;15.65;3.35;;;18.30;99.30;;;;;;4247719;27;20055;-74
2021/08/08 01:42:23;;;;;;;16.30;3.33;;;18.30;99.40;;;;;;4247780;27;20115;-74
2021/08/08 01:44:33;;;;;;;10.50;2.88;;;18.30;99.30;;;;;;4247541;27;20051;-74
2021/08/08 01:46:39;;;;;;;17.90;2.85;;;18.30;99.30;;;;;;4247346;27;20055;-74
2021/08/08 01:48:45;;;;;;;11.35;2.67;;;18.30;99.50;;;;;;4247462;27;20156;-74
2021/08/08 01:50:48;;;;;;;12.00;3.08;;;18.30;99.30;;;;;;4247381;27;20123;-74
2021/08/08 01:52:52;;;;;;;14.25;2.97;;;18.30;99.30;;;;;;4247654;27;20047;-76
2021/08/08 01:54:56;;;;;;;16.20;3.00;;;18.40;99.30;;;;;;4247339;27;20071;-74
2021/08/08 01:56:59;;;;;;;12.63;3.20;;;18.40;99.10;;;;;;4247491;27;20059;-74
2021/08/08 01:59:03;;;;;;;11.68;2.60;;;18.50;98.90;;;;;;4247274;27;20055;-74
2021/08/08 02:01:06;;;;;;;15.00;3.03;;;18.40;99.20;;;;;;4247651;27;20062;-74
2021/08/08 02:03:09;;;;;;;13.18;2.88;;;18.40;99.40;;;;;;4247802;27;20506;-74
2021/08/08 02:05:13;;;;;;;13.38;2.88;;;18.40;99.60;;;;;;4247494;27;20127;-75
2021/08/08 02:07:17;;;;;;;13.68;2.67;;;18.40;99.50;;;;;;4247296;27;20568;-74
2021/08/08 02:09:20;;;;;;;17.58;2.78;;;18.40;99.50;;;;;;4247299;27;20111;-74
2021/08/08 02:11:23;;;;;;;9.50;2.92;;;18.40;99.50;;;;;;4247342;27;20051;-75
2021/08/08 02:13:26;;;;;;;8.05;2.40;;;18.40;99.50;;;;;;4247423;27;20724;-74
2021/08/08 02:15:30;;;;;;;11.15;2.67;;;18.40;99.50;;;;;;4246769;27;20044;-74
2021/08/08 02:17:34;;;;;;;14.90;2.75;;;18.40;99.50;;;;;;4247130;27;20132;-74
2021/08/08 02:19:37;;;;;;;13.85;2.70;;;18.40;99.50;;;;;;4228639;28;20408;-74
2021/08/08 02:21:40;;;;;;;13.20;2.70;;;18.30;99.80;;;;;;4247052;27;20058;-74
2021/08/08 02:23:43;;;;;;;12.00;3.20;;;18.40;99.70;;;;;;4246834;27;20479;-75
2021/08/08 02:25:50;;;;;;;10.88;2.40;;;18.30;99.80;;;;;;4247029;27;20393;-75
2021/08/08 02:27:53;;;;;;;14.02;3.45;;;18.20;99.90;;;;;;4246889;27;20051;-74
2021/08/08 02:29:56;;;;;;;15.02;3.03;;;18.30;99.80;;;;;;4246647;27;20055;-75
2021/08/08 02:32:01;;;;;;;17.75;3.30;;;18.30;99.80;;;;;;4228396;28;20466;-74
2021/08/08 02:34:04;;;;;;;10.35;2.72;;;18.30;99.90;;;;;;4246799;27;20081;-74
2021/08/08 02:36:07;;;;;;;15.80;2.97;;;18.30;99.80;;;;;;4246815;27;20107;-74
2021/08/08 02:38:10;;;;;;;18.65;3.28;;;18.30;99.80;;;;;;4246665;27;20058;-75
2021/08/08 02:40:13;;;;;;;14.77;2.83;;;18.30;99.80;;;;;;4247605;27;20051;-74
2021/08/08 02:42:16;;;;;;;11.38;2.72;;;18.30;99.80;;;;;;4247037;27;20055;-75
2021/08/08 02:44:19;;;;;;;9.80;2.40;;;18.20;99.80;;;;;;4246688;27;20071;-74
2021/08/08 02:46:23;;;;;;;10.73;2.53;;;18.20;99.90;;;;;;4246765;27;20514;-74
2021/08/08 02:48:27;;;;;;;14.25;2.45;;;18.20;99.70;;;;;;4246492;27;20505;-74
2021/08/08 02:50:30;;;;;;;9.68;2.75;;;18.20;99.70;;;;;;4246838;27;20058;-74
2021/08/08 02:52:35;;;;;;;13.70;3.00;;;18.10;99.90;;;;;;4246910;27;20051;-74
2021/08/08 02:54:38;;;;;;;12.70;2.45;;;18.20;99.80;;;;;;4246977;27;20059;-74
2021/08/08 02:56:42;;;;;;;8.10;2.28;;;18.30;99.60;;;;;;4246674;27;20051;-74
2021/08/08 02:58:45;;;;;;;7.90;2.97;;;18.20;99.60;;;;;;4246535;27;20051;-74
2021/08/08 03:00:48;;;;;;;14.35;3.03;;;18.20;99.60;;;;;;4246257;27;20084;-74
2021/08/08 03:02:51;;;;;;;14.77;3.40;;;18.20;99.70;;;;;;4246619;27;20385;-74
2021/08/08 03:04:56;;;;;;;9.80;2.90;;;18.10;99.90;;;;;;4246987;27;20120;-74
2021/08/08 03:06:59;;;;;;;11.35;3.80;;;17.90;99.90;;;;;;4247622;27;20047;-75
2021/08/08 03:09:02;;;;;;;11.40;2.88;;;17.80;99.90;;;;;;4246807;27;20059;-74
2021/08/08 03:11:05;;;;;;;14.82;3.72;;;17.90;99.90;;;;;;4246443;27;20392;-74
2021/08/08 03:13:08;;;;;;;13.85;3.42;;;17.70;99.90;;;;;;4246374;27;20099;-74
2021/08/08 03:15:11;;;;;;;13.63;2.60;;;17.70;99.90;;;;;;4246657;27;20058;-74
2021/08/08 03:17:14;;;;;;;12.93;2.63;;;17.90;99.90;;;;;;4246918;27;20075;-75
2021/08/08 03:19:17;;;;;;;15.43;3.08;;;17.80;99.90;;;;;;4247264;27;20513;-74
2021/08/08 03:21:22;;;;;;;13.25;2.58;;;17.90;99.90;;;;;;4228702;28;20052;-74
2021/08/08 03:23:25;;;;;;;11.90;3.22;;;17.90;99.90;;;;;;4228309;28;20063;-74
2021/08/08 03:25:28;;;;;;;11.25;2.78;;;17.80;99.90;;;;;;4246499;27;20112;-74
2021/08/08 03:27:31;;;;;;;14.13;3.58;;;17.80;99.90;;;;;;4246213;27;20051;-75
2021/08/08 03:29:37;;;;;;;14.35;3.25;;;17.80;99.90;;;;;;4246267;27;20043;-74
2021/08/08 03:31:42;;;;;;;16.55;3.22;;;17.70;99.90;;;;;;4246744;27;20051;-79
2021/08/08 03:33:45;;;;;;;17.67;3.83;;;17.70;99.90;;;;;;4247391;27;20051;-81
2021/08/08 03:35:48;;;;;;;18.85;3.55;;;17.70;99.90;;;;;;4229128;28;20059;-80
2021/08/08 03:37:52;;;;;;;14.00;3.22;;;17.80;99.90;;;;;;4246000;27;20051;-74
2021/08/08 03:39:55;;;;;;;18.25;3.80;;;17.70;99.90;;;;;;4246208;27;20047;-74
2021/08/08 03:41:58;;;;;;;14.75;3.67;;;17.80;99.90;;;;;;4245177;27;20051;-74
2021/08/08 03:44:01;;;;;;;16.38;3.10;;;17.70;99.90;;;;;;4245680;27;20086;-75
2021/08/08 03:46:04;;;;;;;11.18;3.00;;;17.80;99.90;;;;;;4246276;27;20050;-74
2021/08/08 03:48:07;;;;;;;19.30;4.13;;;17.80;99.90;;;;;;4246180;28;20104;-74
2021/08/08 03:50:10;;;;;;;18.45;3.40;;;17.90;99.90;;;;;;4246204;28;20051;-74
2021/08/08 03:52:13;;;;;;;15.73;4.00;;;17.80;99.90;;;;;;4245897;28;20054;-75
2021/08/08 03:54:18;;;;;;;9.43;3.15;;;17.80;99.90;;;;;;4246058;28;20499;-74
2021/08/08 03:56:21;;;;;;;13.70;3.80;;;17.80;99.90;;;;;;4248468;28;20055;-74
2021/08/08 03:58:29;;;;;;;16.88;3.60;;;17.70;99.90;;;;;;4247540;28;20058;-74
2021/08/08 04:00:32;;;;;;;14.27;3.28;;;17.80;99.90;;;;;;4245852;28;20438;-75
2021/08/08 04:02:36;;;;;;;13.57;3.10;;;17.90;99.90;;;;;;4246025;28;20529;-75
2021/08/08 04:04:39;;;;;;;23.67;3.65;;;17.80;99.90;;;;;;4245826;28;20047;-74
2021/08/08 04:06:42;;;;;;;15.38;3.80;;;17.90;99.90;;;;;;4245824;28;20051;-74
2021/08/08 04:08:45;;;;;;;17.63;3.70;;;17.80;99.90;;;;;;4245698;28;20593;-75
2021/08/08 04:10:49;;;;;;;13.07;2.70;;;17.80;99.90;;;;;;4245796;28;20055;-74
2021/08/08 04:12:52;;;;;;;15.13;3.38;;;17.70;99.90;;;;;;4246016;28;20108;-74
2021/08/08 04:14:55;;;;;;;14.40;3.40;;;17.70;99.90;;;;;;4245721;27;20445;-74
2021/08/08 04:16:58;;;;;;;16.55;4.00;;;17.60;99.90;;;;;;4245867;28;20051;-75
2021/08/08 04:19:01;;;;;;;22.88;4.13;;;17.60;99.90;;;;;;4245998;28;20122;-75
2021/08/08 04:21:04;;;;;;;16.05;3.17;;;17.60;99.90;;;;;;4246065;28;20048;-74
2021/08/08 04:23:08;;;;;;;18.08;4.13;;;17.50;99.90;;;;;;4245779;28;20127;-75
2021/08/08 04:25:11;;;;;;;14.95;3.53;;;17.60;99.90;;;;;;4245917;28;20510;-75
2021/08/08 04:27:15;;;;;;;21.95;3.90;;;17.60;99.90;;;;;;4246041;28;20055;-74
2021/08/08 04:29:18;;;;;;;17.77;3.63;;;17.50;99.90;;;;;;4246942;28;20082;-74
2021/08/08 04:31:21;;;;;;;15.20;3.30;;;17.50;99.90;;;;;;4252958;28;20051;-74
2021/08/08 04:33:24;;;;;;;16.52;3.67;;;17.60;99.90;;;;;;4250893;28;20052;-73
2021/08/08 04:35:27;;;;;;;24.65;4.75;;;17.70;99.90;;;;;;4249487;28;20047;-75
2021/08/08 04:37:31;;;;;;;16.42;3.50;;;17.70;99.90;;;;;;4246106;28;20108;-74
2021/08/08 04:39:34;;;;;;;14.77;2.93;;;17.70;99.90;;;;;;4245547;28;20453;-74
2021/08/08 04:41:37;;;;;;;21.05;4.32;;;17.80;99.90;;;;;;4245577;28;20497;-75
2021/08/08 04:43:42;;;;;;;20.23;4.10;;;18.00;99.90;;;;;;4245523;28;20452;-74
2021/08/08 04:45:45;;;;;;;18.17;4.32;;;18.00;99.90;;;;;;4245517;28;20055;-75
2021/08/08 04:47:48;;;;;;;13.98;3.83;;;18.00;99.90;;;;;;4245777;28;20047;-75
2021/08/08 04:49:51;;;;;;;16.45;3.38;;;17.90;99.90;;;;;;4245342;28;20055;-75
2021/08/08 04:51:54;;;;;;;18.25;4.18;;;17.90;99.70;;;;;;4245210;28;20043;-74
2021/08/08 04:53:57;;;;;;;21.05;4.28;;;17.80;99.90;;;;;;4246723;27;20043;-74
2021/08/08 04:56:00;;;;;;;17.52;4.45;;;17.80;99.70;;;;;;4248319;27;20688;-74
2021/08/08 04:58:03;;;;;;;23.25;4.30;;;17.80;99.60;;;;;;4248429;27;20108;-75
2021/08/08 05:00:09;;;;;;;25.42;4.00;;;17.80;99.70;;;;;;4248452;27;20051;-74
2021/08/08 05:02:19;;;;;;;16.85;3.65;;;17.60;99.50;;;;;;4248517;27;20050;-74
2021/08/08 05:04:22;;;;;;;14.25;3.47;;;17.70;99.40;;;;;;4248549;27;20047;-75
2021/08/08 05:06:25;;;;;;;16.35;3.78;;;17.60;99.60;;;;;;4248353;27;20415;-74
2021/08/08 05:08:28;;;;;;;15.43;3.40;;;17.70;99.50;;;;;;4248329;27;20048;-74
2021/08/08 05:10:31;;;;;;;19.95;4.20;;;17.60;99.40;;;;;;4248324;27;20099;-75
2021/08/08 05:12:34;;;;;;;13.32;3.38;;;17.70;99.60;;;;;;4249735;27;20047;-74
2021/08/08 05:14:38;;;;;;;20.30;3.88;;;17.80;99.40;;;;;;4249767;27;20062;-74
2021/08/08 05:16:42;;;;;;;19.42;3.70;;;17.80;99.10;;;;;;4248396;27;20055;-74
2021/08/08 05:18:45;;;;;;;15.27;3.50;;;17.80;99.10;;;;;;4248357;27;20055;-74
2021/08/08 05:20:49;;;;;;;18.17;3.55;;;17.80;98.90;;;;;;4248083;27;20063;-75
2021/08/08 05:22:52;;;;;;;14.70;3.40;;;17.80;98.90;;;;;;4248095;27;20048;-78
2021/08/08 05:24:55;;;;;;;13.75;3.17;;;17.90;98.80;;;;;;4248176;27;20055;-74
2021/08/08 05:26:58;;;;;;;16.42;3.00;;;18.00;98.70;;;;;;4247947;27;20059;-74
2021/08/08 05:29:00;;;;;;;17.17;3.22;;;18.00;98.50;;;;;;4248213;27;20051;-74
2021/08/08 05:31:03;;;;;;;12.98;3.08;;;18.00;98.50;;;;;;4229824;28;20060;-74
2021/08/08 05:33:08;;;;;;;15.00;3.50;;;18.00;98.60;;;;;;4247882;27;20066;-74
2021/08/08 05:35:11;;;;;;;14.02;3.50;;;18.10;98.40;;;;;;4248238;27;20048;-75
2021/08/08 05:37:14;;;;;;;14.18;3.15;;;18.00;98.30;;;;;;4248052;27;20055;-74
2021/08/08 05:39:17;;;;;;;15.32;3.42;;;18.00;98.40;;;;;;4247731;27;20051;-74
2021/08/08 05:41:20;;;;;;;22.27;3.90;;;18.00;98.40;;;;;;4247568;27;20456;-75
2021/08/08 05:43:23;;;;;;;13.38;3.33;;;17.90;98.50;;;;;;4247917;27;20435;-75
2021/08/08 05:45:27;;;;;;;19.30;4.05;;;17.90;98.50;;;;;;4247917;27;20399;-75
2021/08/08 05:47:30;;;;;;;21.02;3.88;;;18.00;98.60;;;;;;4247699;27;20560;-74
2021/08/08 05:49:34;;;;;;;15.57;3.60;;;18.00;98.50;;;;;;4247768;27;20714;-75
2021/08/08 05:51:40;;;;;;;18.15;4.07;;;18.00;98.40;;;;;;4248180;27;20059;-75
2021/08/08 05:53:43;;;;;;;19.33;4.22;;;18.00;98.80;;;;;;4247914;27;20419;-75
2021/08/08 05:55:46;;;;;;;14.30;3.53;;;18.10;98.40;;;;;;4247562;27;20051;-74
2021/08/08 05:57:49;;;;;;;19.27;3.72;;;18.00;98.30;;;;;;4247514;27;20503;-75
2021/08/08 05:59:53;;;;;;;19.02;3.38;;;17.90;98.40;;;;;;4247258;27;20065;-74
2021/08/08 06:01:56;;;;;;;14.77;3.53;;;17.90;98.70;;;;;;4247776;27;20063;-75
2021/08/08 06:03:59;;;;;;;14.27;3.40;;;18.00;98.50;;;;;;4247345;27;20047;-74
2021/08/08 06:06:03;;;;;;;17.20;4.18;;;18.10;98.40;;;;;;4246863;27;20051;-74
2021/08/08 06:08:06;;;;;;;13.48;3.58;;;18.00;98.40;;;;;;4247359;27;20059;-75
2021/08/08 06:10:10;;;;;;;18.80;3.45;;;18.10;98.50;;;;;;4247554;27;20051;-74
2021/08/08 06:12:13;;;;;;;17.30;2.97;;;18.10;98.50;;;;;;4248527;27;20047;-75
2021/08/08 06:14:16;;;;;;;14.00;3.30;;;18.30;98.20;;;;;;4247474;27;20055;-75
2021/08/08 06:16:19;;;;;;;14.10;3.30;;;18.40;98.00;;;;;;4247418;27;20055;-74
2021/08/08 06:18:22;;;;;;;13.32;3.53;;;18.50;98.00;;;;;;4247299;27;20560;-74
2021/08/08 06:20:25;;;;;;;13.20;3.53;;;18.50;97.90;;;;;;4247252;27;20051;-75
2021/08/08 06:22:29;;;;;;;14.98;3.60;;;18.60;97.70;;;;;;4229222;28;20113;-74
2021/08/08 06:24:32;;;;;;;17.58;3.53;;;18.50;97.60;;;;;;4247181;27;20051;-75
2021/08/08 06:26:36;;;;;;;14.00;3.72;;;18.30;97.70;;;;;;4247144;27;20081;-74
2021/08/08 06:28:39;;;;;;;20.20;3.60;;;18.30;97.90;;;;;;4246945;27;20047;-81
2021/08/08 06:30:42;;;;;;;19.23;3.53;;;18.20;98.00;;;;;;4247404;27;20059;-75
2021/08/08 06:32:45;;;;;;;10.93;3.63;;;18.10;98.40;;;;;;4246911;27;20051;-74
2021/08/08 06:34:48;;;;;;;20.98;4.03;;;18.10;98.30;;;;;;4246961;27;20108;-75
2021/08/08 06:36:51;;;;;;;13.80;3.65;;;18.00;97.90;;;;;;4247127;27;20062;-74
2021/08/08 06:38:57;;;;;;;14.45;3.65;;;18.10;98.10;;;;;;4246968;27;20613;-75
2021/08/08 06:41:00;;;;;;;16.30;3.05;;;17.90;98.10;;;;;;4246862;27;20055;-74
2021/08/08 06:43:04;;;;;;;14.00;3.10;;;17.80;98.30;;;;;;4246540;27;20614;-75
2021/08/08 06:45:08;;;;;;;14.05;3.67;;;17.80;98.20;;;;;;4246889;27;20051;-74
2021/08/08 06:47:11;;;;;;;13.90;3.65;;;17.90;98.40;;;;;;4228491;28;20051;-74
2021/08/08 06:49:14;;;;;;;17.38;3.55;;;17.90;98.40;;;;;;4246701;27;20059;-74
2021/08/08 06:51:17;;;;;;;14.88;3.30;;;18.00;98.30;;;;;;4246887;27;20087;-74
2021/08/08 06:53:20;;;;;;;16.75;3.78;;;18.10;98.20;;;;;;4246643;27;20105;-75
2021/08/08 06:55:24;;;;;;;17.50;4.03;;;18.20;98.10;;;;;;4246523;27;20051;-75
2021/08/08 06:57:28;;;;;;;18.38;3.83;;;18.30;97.90;;;;;;4228646;28;20043;-74
2021/08/08 06:59:31;;;;;;;15.70;3.80;;;18.30;97.50;;;;;;4246580;27;20055;-76
2021/08/08 07:01:34;;;;;;;17.48;4.20;;;18.30;97.30;;;;;;4246525;27;20513;-74
2021/08/08 07:03:38;;;;;;;16.13;4.10;;;18.20;97.50;;;;;;4246770;27;20587;-74
2021/08/08 07:05:41;;;;;;;12.10;3.15;;;18.00;97.70;;;;;;4246255;27;20179;-75
2021/08/08 07:07:44;;;;;;;23.38;3.83;;;18.00;97.70;;;;;;4246286;27;20058;-74
2021/08/08 07:09:47;;;;;;;16.05;3.90;;;18.20;97.70;;;;;;4246273;27;20084;-74
2021/08/08 07:11:51;;;;;;;18.02;3.67;;;18.40;97.60;;;;;;4246619;27;20055;-75
2021/08/08 07:13:56;;;;;;;13.93;3.10;;;18.50;97.40;;;;;;4246031;27;20613;-75
2021/08/08 07:15:59;;;;;;;17.52;3.60;;;18.70;97.10;;;;;;4246189;27;20422;-74
2021/08/08 07:18:02;;;;;;;14.82;3.05;;;18.70;97.00;;;;;;4246077;27;20047;-75
2021/08/08 07:20:06;;;;;;;19.75;4.15;;;18.80;96.80;;;;;;4246174;27;20051;-75
2021/08/08 07:22:10;;;;;;;22.48;4.03;;;18.70;96.50;;;;;;4246109;27;20583;-72
2021/08/08 07:24:13;;;;;;;17.75;3.28;;;18.60;96.90;;;;;;4227867;28;20059;-75
2021/08/08 07:26:16;;;;;;;13.68;3.88;;;18.50;96.90;;;;;;4246112;27;20104;-73
2021/08/08 07:28:21;;;;;;;17.23;3.95;;;18.60;96.80;;;;;;4246161;27;20058;-72
2021/08/08 07:30:24;;;;;;;17.65;3.88;;;18.70;97.00;;;;;;4246272;27;20051;-74
2021/08/08 07:32:27;;;;;;;20.23;3.78;;;18.80;96.90;;;;;;4246287;27;20539;-75
2021/08/08 07:34:30;;;;;;;14.98;4.07;;;18.90;96.60;;;;;;4246266;27;20210;-73
2021/08/08 07:36:33;;;;;;;17.45;4.28;;;19.00;96.50;;;;;;4245799;27;20051;-73
2021/08/08 07:38:36;;;;;;;14.05;3.58;;;19.10;96.20;;;;;;4246320;27;20054;-73
2021/08/08 07:40:39;;;;;;;17.73;3.28;;;19.00;96.10;;;;;;4246019;27;20055;-75
2021/08/08 07:42:47;;;;;;;16.83;3.80;;;18.70;96.10;;;;;;4246066;27;20449;-73
2021/08/08 07:44:51;;;;;;;13.57;3.13;;;18.70;96.50;;;;;;4245875;27;20047;-72
2021/08/08 07:46:54;;;;;;;16.52;3.55;;;18.70;96.50;;;;;;4245879;27;20055;-74
2021/08/08 07:48:57;;;;;;;14.80;2.78;;;18.70;96.10;;;;;;4227668;28;20063;-76
2021/08/08 07:51:00;;;;;;;15.05;3.53;;;18.60;96.20;;;;;;4245864;27;20111;-75
2021/08/08 07:53:05;;;;;;;15.75;3.53;;;18.80;96.60;;;;;;4245986;27;20059;-76
2021/08/08 07:55:09;;;;;;;12.68;3.47;;;19.00;95.80;;;;;;4245861;28;20518;-76
2021/08/08 07:57:12;;;;;;;14.93;3.50;;;18.70;96.10;;;;;;4246115;28;20081;-73
2021/08/08 07:59:15;;;;;;;9.75;2.92;;;18.70;96.00;;;;;;4245992;28;20120;-75
2021/08/08 08:01:21;;;;;;;13.52;3.63;;;18.60;96.00;;;;;;4245808;28;20571;-75
2021/08/08 08:03:24;;;;;;;16.08;3.80;;;18.70;95.80;;;;;;4246114;28;20051;-74
2021/08/08 08:05:27;;;;;;;14.73;3.33;;;18.70;96.10;;;;;;4227984;28;20682;-74
2021/08/08 08:07:30;;;;;;;17.63;3.92;;;18.80;95.50;;;;;;4245627;28;20055;-74
2021/08/08 08:09:33;;;;;;;14.77;3.28;;;18.70;95.70;;;;;;4245885;28;20137;-74
2021/08/08 08:11:39;;;;;;;13.02;3.72;;;18.70;95.50;;;;;;4245836;28;20127;-75
2021/08/08 08:13:42;;;;;;;21.85;4.97;;;18.50;95.60;;;;;;4245496;28;20051;-81
2021/08/08 08:15:45;;;;;;;11.35;2.80;;;18.60;95.70;;;;;;4227275;28;20051;-74
2021/08/08 08:17:51;;;;;;;18.52;3.65;;;18.80;95.80;;;;;;4245722;28;20533;-74
2021/08/08 08:19:55;;;;;;;12.18;3.47;;;18.80;95.30;;;;;;4245808;28;20104;-75
2021/08/08 08:21:58;;;;;;;13.05;3.50;;;18.90;95.40;;;;;;4245635;28;20469;-74
2021/08/08 08:24:01;;;;;;;11.52;2.95;;;18.90;94.90;;;;;;4245591;28;20475;-75
2021/08/08 08:26:03;;;;;;;15.43;3.78;;;19.00;94.80;;;;;;4245530;28;20051;-74
2021/08/08 08:28:06;;;;;;;14.73;3.75;;;18.90;94.60;;;;;;4245627;27;20055;-75
2021/08/08 08:30:11;;;;;;;15.88;3.70;;;19.00;94.90;;;;;;4248921;27;20055;-75
2021/08/08 08:32:14;;;;;;;19.38;3.90;;;19.10;94.90;;;;;;4249110;27;20051;-75
2021/08/08 08:34:18;;;;;;;14.35;3.63;;;19.20;95.00;;;;;;4230538;28;20052;-75
2021/08/08 08:36:21;;;;;;;12.23;3.88;;;19.30;95.00;;;;;;4248768;27;20058;-75
2021/08/08 08:38:24;;;;;;;16.67;3.17;;;19.30;94.40;;;;;;4248693;27;20051;-74
2021/08/08 08:40:28;;;;;;;14.10;3.58;;;19.40;94.50;;;;;;4248789;27;20055;-74
2021/08/08 08:42:32;;;;;;;15.15;3.78;;;19.40;94.30;;;;;;4248693;27;20120;-75
2021/08/08 08:44:36;;;;;;;17.02;4.40;;;19.50;94.10;;;;;;4248630;27;20051;-74
2021/08/08 08:46:41;;;;;;;12.70;3.80;;;19.40;94.00;;;;;;4248556;27;20104;-75
2021/08/08 08:48:45;;;;;;;16.08;3.53;;;19.30;94.00;;;;;;4248539;27;20047;-74
2021/08/08 08:50:52;;;;;;;16.95;4.00;;;19.20;94.30;;;;;;4248404;27;20062;-74
2021/08/08 08:52:56;;;;;;;18.15;4.35;;;19.20;94.30;;;;;;4248671;27;20062;-74
2021/08/08 08:54:59;;;;;;;16.10;3.28;;;19.20;94.40;;;;;;4248725;27;20063;-74
2021/08/08 08:57:03;;;;;;;16.45;3.65;;;19.30;94.40;;;;;;4248482;27;20059;-74
2021/08/08 08:59:07;;;;;;;11.52;3.67;;;19.10;94.30;;;;;;4248379;27;20086;-73
2021/08/08 09:01:10;;;;;;;16.73;4.13;;;19.10;94.50;;;;;;4248552;27;20059;-74
2021/08/08 09:03:14;;;;;;;14.17;3.00;;;19.20;94.70;;;;;;4248178;27;20055;-75
2021/08/08 09:05:20;;;;;;;18.25;3.83;;;19.60;94.70;;;;;;4248233;27;20475;-74
2021/08/08 09:07:24;;;;;;;12.02;3.42;;;19.80;94.30;;;;;;4248514;27;20515;-74
2021/08/08 09:09:27;;;;;;;15.65;4.40;;;20.00;93.40;;;;;;4248417;27;20056;-74
2021/08/08 09:11:38;;;;;;;19.48;3.88;;;20.00;92.70;;;;;;4248321;27;20054;-75
2021/08/08 09:13:52;;;;;;;14.35;3.83;;;19.80;92.70;;;;;;4248112;27;20062;-74
2021/08/08 09:15:55;;;;;;;14.20;3.33;;;20.10;93.10;;;;;;4248464;27;20135;-75
2021/08/08 09:18:09;;;;;;;17.65;4.05;;;20.10;93.00;;;;;;4248713;27;20414;-74
2021/08/08 09:20:12;;;;;;;9.80;3.30;;;20.20;92.50;;;;;;4248206;27;20055;-74
2021/08/08 09:22:20;;;;;;;10.70;3.13;;;20.30;92.80;;;;;;4248094;27;20483;-75
2021/08/08 09:24:28;;;;;;;10.73;3.42;;;20.30;92.20;;;;;;4248364;27;20059;-75
2021/08/08 09:26:33;;;;;;;13.38;3.70;;;20.50;91.90;;;;;;4248093;27;20047;-75
2021/08/08 09:28:36;;;;;;;11.05;3.08;;;20.50;92.00;;;;;;4248044;27;20059;-75
2021/08/08 09:30:41;;;;;;;11.07;3.60;;;20.50;91.40;;;;;;4248060;27;20109;-74
2021/08/08 09:32:44;;;;;;;;;;;20.40;91.40;;;;;;4249003;27;20461;-75
2021/08/08 09:34:51;;;;;;;11.30;2.97;;;20.20;90.80;;;;;;4248267;27;19919;-75
2021/08/08 09:36:56;;;;;;;14.23;3.50;;;20.10;91.30;;;;;;4248364;27;20080;-75
2021/08/08 09:38:59;;;;;;;16.00;3.30;;;20.00;90.60;;;;;;4247907;27;20465;-74
2021/08/08 09:41:04;;;;;;;16.30;3.60;;;20.00;90.90;;;;;;4246424;27;20056;-74
2021/08/08 09:43:08;;;;;;;12.40;3.08;;;20.00;91.10;;;;;;4247666;27;20062;-74
2021/08/08 09:45:14;;;;;;;11.20;3.50;;;20.20;91.20;;;;;;4247606;27;20051;-75
2021/08/08 09:47:17;;;;;;;11.70;3.95;;;20.10;90.50;;;;;;4247958;27;20500;-74
2021/08/08 09:49:24;;;;;;;12.70;3.40;;;20.40;90.70;;;;;;4247864;27;20511;-74
2021/08/08 09:51:27;;;;;;;12.18;3.70;;;20.50;90.40;;;;;;4247541;27;20055;-75
2021/08/08 09:53:30;;;;;;;11.32;4.07;;;20.70;90.10;;;;;;4247556;27;20081;-74
2021/08/08 09:55:35;;;;;;;15.50;5.78;;;20.70;90.40;;;;;;4247351;27;20143;-75
2021/08/08 09:57:40;;;;;;;13.32;3.78;;;20.70;89.20;;;;;;4247110;27;20058;-75
2021/08/08 09:59:47;;;;;;;17.45;3.40;;;20.50;88.80;;;;;;4247243;27;20055;-75
2021/08/08 10:01:50;;;;;;;15.35;3.88;;;20.20;89.30;;;;;;4247310;27;20063;-75
2021/08/08 10:03:53;;;;;;;17.52;4.63;;;20.20;90.00;;;;;;4246965;27;20051;-74
2021/08/08 10:05:57;;;;;;;10.05;3.00;;;20.30;90.00;;;;;;4247347;27;20112;-74
2021/08/08 10:08:06;;;;;;;14.68;3.90;;;20.30;90.10;;;;;;4247374;27;20561;-75
2021/08/08 10:10:11;;;;;;;11.35;3.38;;;20.30;88.80;;;;;;4247426;27;20051;-74
2021/08/08 10:12:30;;;;;;;12.57;3.40;;;20.60;90.10;;;;;;4247152;27;20051;-75
2021/08/08 10:14:34;;;;;;;12.73;3.75;;;20.60;88.20;;;;;;4246776;27;20063;-75
2021/08/08 10:16:42;;;;;;;13.48;4.13;;;20.90;89.40;;;;;;4247281;27;20051;-75
2021/08/08 10:18:50;;;;;;;11.52;3.17;;;20.80;88.50;;;;;;4247328;27;20511;-74
2021/08/08 10:20:53;;;;;;;9.35;3.17;;;21.00;88.30;;;;;;4246703;27;20059;-74
2021/08/08 10:22:57;;;;;;;13.15;3.22;;;20.80;87.10;;;;;;4246774;27;20047;-75
2021/08/08 10:25:01;;;;;;;15.38;4.05;;;20.60;87.10;;;;;;4246966;27;20054;-75
2021/08/08 10:27:04;;;;;;;12.55;3.25;;;20.60;87.10;;;;;;4246791;27;20051;-74
2021/08/08 10:29:07;;;;;;;14.45;3.42;;;20.60;85.80;;;;;;4246886;27;20062;-75
2021/08/08 10:31:17;;;;;;;11.85;3.97;;;20.60;85.40;;;;;;4246706;27;20115;-75
2021/08/08 10:33:20;;;;;;;16.13;3.92;;;20.50;84.70;;;;;;4246890;27;20066;-74
2021/08/08 10:35:23;;;;;;;11.60;3.53;;;20.30;86.40;;;;;;4246964;27;20499;-74
2021/08/08 10:37:26;;;;;;;12.95;4.10;;;20.40;85.80;;;;;;4246786;27;20073;-75